Kelsey, Texas
Current Conditions -  °F | °C
As of 2:35 PM on Thursday 23 Oct 2014 (Local Time) from KOSA Reporting Station
Scattered Clouds Scattered Clouds  
Wind Chill: 73°   Ceiling: Unl
Heat Index: 73°   Visibility: 10mi
Dew Point: 49°   Wind: 3mph
Humidity: 44%   Direction: 290°WNW
Pressure: 30.14"   Gusts: NA
Location:  32.7353°N, 94.9492°W
Report Text: KOSA 231935Z AUTO 29003KT 10SM SCT110 23/10 A3014 RMK AO1 T02250096
Loading
Personal Weather Stations






























Interactive Weather Map
Tropical Storm Tracking
New forecast layout! Learn more

10-Day Weather Forecast

Advertisements
Track Severe Weather on mobile